Time;durP1;ratioP1;P1;durP2;ratioP2;P2;SDS_P1;SDS_P2;PMS_P1;PMS_P2;Temp;Humidity;BMP_temperature;BMP_pressure;BME280_temperature;BME280_humidity;BME280_pressure;Samples;Min_cycle;Max_cycle;Signal;HPM_P1;HPM_P2
2023/01/19 00:00:35;;;;;;;7.93;0.87;;;3.60;99.90;;;;;;5113360;28;20055;-77
2023/01/19 00:03:03;;;;;;;9.20;1.03;;;3.60;99.90;;;;;;5113121;28;20047;-77
2023/01/19 00:05:28;;;;;;;7.30;1.20;;;3.50;99.90;;;;;;5113567;28;20123;-77
2023/01/19 00:07:54;;;;;;;9.43;1.20;;;3.50;99.90;;;;;;5112975;28;20487;-77
2023/01/19 00:10:20;;;;;;;12.63;1.43;;;3.50;99.90;;;;;;5112315;28;20040;-77
2023/01/19 00:12:46;;;;;;;11.90;1.20;;;3.50;99.90;;;;;;5112531;28;20051;-77
2023/01/19 00:15:11;;;;;;;7.53;1.30;;;3.40;99.90;;;;;;5113702;28;20079;-77
2023/01/19 00:17:39;;;;;;;11.37;1.30;;;3.50;99.90;;;;;;5112106;28;20067;-77
2023/01/19 00:20:06;;;;;;;10.30;1.95;;;3.50;99.90;;;;;;5113405;28;20506;-77
2023/01/19 00:22:32;;;;;;;8.57;1.42;;;3.50;99.90;;;;;;5112858;28;20055;-77
2023/01/19 00:24:58;;;;;;;13.43;2.17;;;3.60;99.90;;;;;;5113648;28;20043;-76
2023/01/19 00:27:23;;;;;;;14.10;1.20;;;3.60;99.90;;;;;;5113315;28;20044;-76
2023/01/19 00:29:49;;;;;;;13.63;1.60;;;3.60;99.90;;;;;;5113577;28;20130;-76
2023/01/19 00:32:16;;;;;;;8.27;1.27;;;3.70;99.90;;;;;;5111871;28;20089;-85
2023/01/19 00:34:48;;;;;;;10.02;1.42;;;3.70;99.90;;;;;;5113432;28;20122;-77
2023/01/19 00:37:15;;;;;;;8.13;1.50;;;3.80;99.90;;;;;;5113525;28;20047;-77
2023/01/19 00:39:42;;;;;;;11.40;1.50;;;3.80;99.90;;;;;;5113404;28;20039;-77
2023/01/19 00:44:55;;;;;;;11.82;1.30;;;3.80;99.90;;;;;;5113571;28;20055;-77
2023/01/19 00:47:21;;;;;;;13.00;2.00;;;3.80;99.90;;;;;;5113137;28;20142;-77
2023/01/19 00:49:47;;;;;;;11.23;1.60;;;3.80;99.90;;;;;;5112132;28;20578;-77
2023/01/19 00:52:12;;;;;;;15.37;1.67;;;3.80;99.90;;;;;;5112129;28;20050;-77
2023/01/19 00:54:38;;;;;;;12.97;1.50;;;3.80;99.90;;;;;;5112024;28;20369;-77
2023/01/19 00:57:04;;;;;;;14.73;1.57;;;3.70;99.90;;;;;;5112887;28;20054;-77
2023/01/19 00:59:30;;;;;;;17.63;1.90;;;3.80;99.90;;;;;;5111674;28;20051;-77
2023/01/19 01:01:55;;;;;;;12.40;1.40;;;3.80;99.90;;;;;;5111961;28;20092;-77
2023/01/19 01:04:21;;;;;;;12.03;1.67;;;3.80;99.90;;;;;;5112886;28;20047;-77
2023/01/19 01:06:47;;;;;;;11.13;1.70;;;3.70;99.90;;;;;;5113153;28;20135;-76
2023/01/19 01:09:12;;;;;;;12.60;1.70;;;3.80;99.90;;;;;;5113043;28;20402;-77
2023/01/19 01:11:42;;;;;;;11.00;1.60;;;3.80;99.90;;;;;;5111666;28;20044;-76
2023/01/19 01:14:09;;;;;;;13.77;1.73;;;3.80;99.90;;;;;;5113092;28;20473;-76
2023/01/19 01:16:34;;;;;;;15.35;1.60;;;3.80;99.90;;;;;;5094616;28;20383;-77
2023/01/19 01:19:00;;;;;;;8.00;1.50;;;3.80;99.90;;;;;;5113222;28;20051;-77
2023/01/19 01:21:26;;;;;;;10.63;1.40;;;3.80;99.90;;;;;;5112669;28;20047;-76
2023/01/19 01:23:52;;;;;;;15.77;1.50;;;3.80;99.90;;;;;;5112980;28;20058;-76
2023/01/19 01:26:17;;;;;;;11.70;1.20;;;3.80;99.90;;;;;;5113038;28;20273;-76
2023/01/19 01:28:43;;;;;;;7.73;1.40;;;3.80;99.90;;;;;;5111703;28;20360;-76
2023/01/19 01:31:09;;;;;;;10.90;2.20;;;3.80;99.90;;;;;;5112872;28;20046;-76
2023/01/19 01:33:34;;;;;;;12.23;1.43;;;3.80;99.90;;;;;;5114411;28;20332;-76
2023/01/19 01:36:00;;;;;;;11.50;1.20;;;3.80;99.90;;;;;;5116763;28;20086;-76
2023/01/19 01:38:26;;;;;;;12.53;1.30;;;3.80;99.90;;;;;;5116304;28;20062;-77
2023/01/19 01:40:51;;;;;;;11.10;1.63;;;3.80;99.90;;;;;;5115375;28;20126;-76
2023/01/19 01:43:19;;;;;;;11.60;1.03;;;3.80;99.90;;;;;;5116493;28;20550;-76
2023/01/19 01:45:46;;;;;;;9.88;1.60;;;3.80;99.90;;;;;;5116203;28;20040;-76
2023/01/19 01:48:29;;;;;;;11.65;1.30;;;3.90;99.90;;;;;;5115152;28;20079;-76
2023/01/19 01:51:25;;;;;;;6.53;1.25;;;3.80;99.90;;;;;;5116373;28;20134;-76
2023/01/19 01:54:10;;;;;;;9.75;1.08;;;3.90;99.90;;;;;;5116281;28;20054;-76
2023/01/19 01:56:43;;;;;;;8.98;1.48;;;3.90;99.90;;;;;;5104107;28;20085;-76
2023/01/19 01:59:24;;;;;;;9.57;1.40;;;3.90;99.90;;;;;;5116107;28;20506;-76
2023/01/19 02:04:46;;;;;;;9.93;1.60;;;3.90;99.90;;;;;;5115858;28;20048;-76
2023/01/19 02:15:36;;;;;;;9.40;1.20;;;4.00;99.90;;;;;;5115739;28;20047;-76
2023/01/19 02:18:02;;;;;;;9.43;1.13;;;4.00;99.90;;;;;;5115208;28;20063;-76
2023/01/19 02:20:31;;;;;;;9.20;1.00;;;4.00;99.90;;;;;;5115502;28;20113;-76
2023/01/19 02:23:02;;;;;;;9.63;1.60;;;4.00;99.90;;;;;;5115944;28;20083;-75
2023/01/19 02:25:28;;;;;;;9.00;1.38;;;4.00;99.90;;;;;;5115461;28;20051;-76
2023/01/19 02:27:54;;;;;;;5.90;1.10;;;4.00;99.90;;;;;;5115982;28;20130;-76
2023/01/19 02:30:20;;;;;;;5.43;0.95;;;4.00;99.90;;;;;;5115646;28;20048;-76
2023/01/19 02:32:45;;;;;;;5.60;1.10;;;4.00;99.90;;;;;;5114096;28;20088;-76
2023/01/19 02:35:12;;;;;;;7.07;1.30;;;4.00;99.90;;;;;;5114587;28;20047;-76
2023/01/19 02:37:39;;;;;;;5.72;1.00;;;4.00;99.90;;;;;;5114247;28;20055;-76
2023/01/19 02:40:10;;;;;;;8.35;1.10;;;4.00;99.90;;;;;;5115887;28;20071;-76
2023/01/19 02:42:42;;;;;;;8.10;1.63;;;3.90;99.90;;;;;;5115109;27;20044;-77
2023/01/19 02:45:11;;;;;;;6.65;0.90;;;3.90;99.90;;;;;;5114816;28;20040;-76
2023/01/19 02:47:43;;;;;;;6.35;1.00;;;3.90;99.90;;;;;;5115042;28;20047;-76
2023/01/19 02:50:28;;;;;;;12.32;1.48;;;3.90;99.90;;;;;;5115243;28;20044;-76
2023/01/19 02:53:04;;;;;;;6.20;0.93;;;4.00;99.90;;;;;;5114628;28;20495;-76
2023/01/19 02:55:31;;;;;;;8.98;1.42;;;3.90;99.90;;;;;;5114997;28;20391;-84
2023/01/19 02:58:17;;;;;;;7.45;1.08;;;3.90;99.90;;;;;;5115350;28;20082;-76
2023/01/19 03:00:49;;;;;;;8.52;1.08;;;4.00;99.90;;;;;;5114803;28;20546;-76
2023/01/19 03:03:31;;;;;;;11.48;1.30;;;3.90;99.90;;;;;;5113878;28;20058;-76
2023/01/19 03:06:10;;;;;;;8.80;1.23;;;4.00;99.90;;;;;;5114943;28;20047;-76
2023/01/19 03:08:42;;;;;;;10.32;1.33;;;4.00;99.90;;;;;;5114772;28;20458;-76
2023/01/19 03:11:10;;;;;;;5.30;0.73;;;4.00;99.90;;;;;;5114924;28;20139;-76
2023/01/19 03:13:42;;;;;;;7.47;0.90;;;4.00;99.90;;;;;;5114482;28;20479;-76
2023/01/19 03:16:10;;;;;;;9.23;1.20;;;4.00;99.90;;;;;;5114763;28;20051;-76
2023/01/19 03:18:41;;;;;;;8.60;1.23;;;4.00;99.90;;;;;;5095646;28;20059;-76
2023/01/19 03:21:09;;;;;;;5.95;0.77;;;4.00;99.90;;;;;;5113429;28;20047;-76
2023/01/19 03:23:39;;;;;;;7.13;0.73;;;4.00;99.90;;;;;;5114333;28;20079;-76
2023/01/19 03:26:09;;;;;;;2.40;0.80;;;3.90;99.90;;;;;;5114821;27;20044;-76
2023/01/19 03:28:37;;;;;;;11.75;1.38;;;3.90;99.90;;;;;;5113907;28;20087;-76
2023/01/19 03:31:14;;;;;;;7.07;1.20;;;4.00;99.90;;;;;;5114462;28;20040;-76
2023/01/19 03:33:43;;;;;;;6.70;1.20;;;4.00;99.90;;;;;;5114123;28;20459;-76
2023/01/19 03:36:17;;;;;;;6.43;1.00;;;4.00;99.90;;;;;;5114297;28;20040;-76
2023/01/19 03:38:46;;;;;;;11.52;1.20;;;4.00;99.90;;;;;;5113143;28;20108;-76
2023/01/19 03:41:16;;;;;;;10.98;1.02;;;4.00;99.90;;;;;;5114434;28;20458;-76
2023/01/19 03:43:43;;;;;;;8.48;1.00;;;4.00;99.90;;;;;;5113879;28;20400;-75
2023/01/19 03:46:10;;;;;;;9.48;1.17;;;4.00;99.90;;;;;;5114192;28;20065;-76
2023/01/19 03:48:36;;;;;;;9.82;1.30;;;4.00;99.90;;;;;;5113875;28;20052;-79
2023/01/19 03:51:05;;;;;;;9.35;1.70;;;3.90;99.90;;;;;;5096197;28;20127;-76
2023/01/19 03:53:31;;;;;;;13.63;1.50;;;3.90;99.90;;;;;;5113905;28;20040;-76
2023/01/19 03:55:56;;;;;;;15.33;1.30;;;3.90;99.90;;;;;;5112927;28;20044;-76
2023/01/19 03:58:22;;;;;;;9.83;1.63;;;3.90;99.90;;;;;;5113882;28;20151;-76
2023/01/19 04:00:48;;;;;;;7.00;1.20;;;4.00;99.90;;;;;;5112769;28;20099;-77
2023/01/19 04:03:15;;;;;;;11.93;1.47;;;4.00;99.90;;;;;;5095949;28;20059;-76
2023/01/19 04:05:41;;;;;;;14.13;1.80;;;4.00;99.90;;;;;;5113065;28;20589;-77
2023/01/19 04:08:07;;;;;;;13.88;1.60;;;4.10;99.90;;;;;;5112423;28;20085;-76
2023/01/19 04:10:33;;;;;;;13.05;1.75;;;4.10;99.90;;;;;;5113679;28;20140;-76
2023/01/19 04:13:00;;;;;;;16.50;1.90;;;4.10;99.90;;;;;;5112088;28;20144;-76
2023/01/19 04:15:27;;;;;;;17.30;2.10;;;4.10;99.90;;;;;;5113273;28;20373;-76
2023/01/19 04:17:55;;;;;;;14.93;1.92;;;4.10;99.90;;;;;;5112060;28;20064;-77
2023/01/19 04:20:21;;;;;;;10.50;1.60;;;4.10;99.90;;;;;;5113520;28;20093;-76
2023/01/19 04:22:48;;;;;;;16.27;1.90;;;4.10;99.90;;;;;;5113307;27;20087;-76
2023/01/19 04:25:14;;;;;;;15.48;1.92;;;4.10;99.90;;;;;;5113662;28;20048;-76
2023/01/19 04:27:40;;;;;;;11.02;1.40;;;4.10;99.90;;;;;;5113180;28;20039;-77
2023/01/19 04:30:07;;;;;;;13.73;1.70;;;4.10;99.90;;;;;;5112302;28;20039;-76
2023/01/19 04:32:32;;;;;;;16.13;1.50;;;4.10;99.90;;;;;;5112944;28;20083;-76
2023/01/19 04:34:58;;;;;;;9.73;1.30;;;4.10;99.90;;;;;;5113189;28;20124;-76
2023/01/19 04:37:24;;;;;;;16.93;1.90;;;4.20;99.90;;;;;;5113483;28;20073;-75
2023/01/19 04:39:50;;;;;;;14.43;1.47;;;4.10;99.90;;;;;;5113246;28;20044;-76
2023/01/19 04:42:15;;;;;;;9.83;1.10;;;4.10;99.90;;;;;;5113555;28;20075;-76
2023/01/19 04:44:41;;;;;;;11.90;1.37;;;4.20;99.90;;;;;;5113105;28;20047;-77
2023/01/19 04:47:07;;;;;;;6.82;1.20;;;4.20;99.90;;;;;;5112413;28;20066;-76
2023/01/19 04:49:36;;;;;;;9.87;1.23;;;4.10;99.90;;;;;;5112187;28;20475;-75
2023/01/19 04:52:03;;;;;;;9.85;1.10;;;4.10;99.90;;;;;;5111821;28;20048;-76
2023/01/19 04:54:29;;;;;;;6.43;1.02;;;4.20;99.90;;;;;;5113452;28;20051;-76
2023/01/19 04:56:55;;;;;;;8.53;1.07;;;4.10;99.90;;;;;;5111850;28;20438;-76
2023/01/19 04:59:21;;;;;;;7.87;0.90;;;4.20;99.90;;;;;;5113633;28;20093;-76
2023/01/19 05:01:46;;;;;;;7.43;0.93;;;4.10;99.90;;;;;;5111694;28;20493;-77
2023/01/19 05:04:12;;;;;;;10.23;1.10;;;4.10;99.90;;;;;;5113557;28;20043;-76
2023/01/19 05:06:38;;;;;;;6.00;0.90;;;4.20;99.90;;;;;;5113372;28;20039;-76
2023/01/19 05:09:03;;;;;;;11.53;1.20;;;4.10;99.90;;;;;;5116976;28;20043;-76
2023/01/19 05:11:29;;;;;;;9.90;1.10;;;4.10;99.90;;;;;;5117129;28;20050;-76
2023/01/19 05:13:55;;;;;;;6.43;0.97;;;4.10;99.90;;;;;;5115723;28;20052;-77
2023/01/19 05:16:21;;;;;;;6.67;1.00;;;4.00;99.90;;;;;;5098868;28;20062;-76
2023/01/19 05:18:46;;;;;;;8.67;1.50;;;4.00;99.90;;;;;;5115479;28;20066;-76
2023/01/19 05:21:12;;;;;;;11.13;1.23;;;4.00;99.90;;;;;;5116341;28;20043;-76
2023/01/19 05:23:38;;;;;;;10.40;1.43;;;3.90;99.90;;;;;;5115746;28;20039;-75
2023/01/19 05:26:04;;;;;;;12.80;2.00;;;3.90;99.90;;;;;;5116749;27;20054;-76
2023/01/19 05:28:31;;;;;;;10.87;1.63;;;3.90;99.90;;;;;;5116824;28;20123;-76
2023/01/19 05:30:57;;;;;;;8.70;1.15;;;3.90;99.90;;;;;;5116492;28;20368;-76
2023/01/19 05:33:23;;;;;;;7.57;1.27;;;3.90;99.90;;;;;;5116638;28;20122;-76
2023/01/19 05:35:53;;;;;;;8.50;1.52;;;3.80;99.90;;;;;;5116446;28;20495;-76
2023/01/19 05:38:20;;;;;;;10.32;1.40;;;3.90;99.90;;;;;;5115533;28;20044;-76
2023/01/19 05:40:46;;;;;;;12.77;1.55;;;3.80;99.90;;;;;;5116998;28;20126;-76
2023/01/19 05:43:13;;;;;;;8.45;1.40;;;3.80;99.90;;;;;;5116271;28;20476;-76
2023/01/19 05:45:38;;;;;;;10.50;1.42;;;3.80;99.90;;;;;;5115488;28;20087;-76
2023/01/19 05:48:05;;;;;;;9.20;1.30;;;3.80;99.90;;;;;;5116189;28;20073;-76
2023/01/19 05:50:31;;;;;;;11.15;1.40;;;3.80;99.90;;;;;;5115484;28;20040;-77
2023/01/19 05:52:58;;;;;;;14.20;1.70;;;3.80;99.90;;;;;;5115748;28;20488;-77
2023/01/19 05:55:24;;;;;;;13.57;1.70;;;3.70;99.90;;;;;;5116610;28;20055;-76
2023/01/19 05:57:50;;;;;;;11.93;2.13;;;3.70;99.90;;;;;;5115994;28;20043;-77
2023/01/19 06:00:16;;;;;;;8.67;1.30;;;3.70;99.90;;;;;;5115243;28;20083;-77
2023/01/19 06:02:42;;;;;;;12.55;1.42;;;3.70;99.90;;;;;;5116195;28;20376;-77
2023/01/19 06:05:08;;;;;;;15.85;1.95;;;3.70;99.90;;;;;;5115900;28;20525;-77
2023/01/19 06:07:34;;;;;;;13.35;1.60;;;3.70;99.90;;;;;;5114919;28;20145;-76
2023/01/19 06:10:00;;;;;;;11.03;1.57;;;3.70;99.90;;;;;;5115717;28;20138;-76
2023/01/19 06:12:26;;;;;;;16.50;1.87;;;3.70;99.90;;;;;;5097854;28;20454;-77
2023/01/19 06:14:51;;;;;;;14.40;1.80;;;3.80;99.90;;;;;;5115895;28;20059;-75
2023/01/19 06:17:17;;;;;;;14.27;2.47;;;3.80;99.90;;;;;;5115601;28;20047;-77
2023/01/19 06:19:43;;;;;;;11.57;1.60;;;3.90;99.90;;;;;;5115044;28;20496;-75
2023/01/19 06:22:08;;;;;;;16.10;2.23;;;3.90;99.90;;;;;;5115525;27;20032;-76
2023/01/19 06:24:34;;;;;;;13.83;2.03;;;3.90;99.90;;;;;;5115833;28;20134;-76
2023/01/19 06:27:00;;;;;;;17.60;2.70;;;4.00;99.90;;;;;;5114308;28;20445;-78
2023/01/19 06:29:26;;;;;;;15.90;2.00;;;4.00;99.90;;;;;;5097407;28;20040;-77
2023/01/19 06:31:52;;;;;;;21.15;2.97;;;4.00;99.90;;;;;;5114025;28;20373;-81
2023/01/19 06:34:18;;;;;;;10.77;1.80;;;4.10;99.90;;;;;;5114579;28;20134;-77
2023/01/19 06:36:45;;;;;;;20.75;2.95;;;4.10;99.90;;;;;;5114703;28;20518;-77
2023/01/19 06:39:11;;;;;;;16.02;2.13;;;4.10;99.90;;;;;;5115174;28;20487;-77
2023/01/19 06:41:37;;;;;;;19.87;3.03;;;4.10;99.90;;;;;;5114082;28;20099;-77
2023/01/19 06:44:03;;;;;;;17.95;2.65;;;4.00;99.90;;;;;;5113937;28;20047;-77
2023/01/19 06:46:29;;;;;;;18.25;2.08;;;4.00;99.90;;;;;;5115309;28;20055;-76
2023/01/19 06:48:55;;;;;;;16.03;1.60;;;4.00;99.90;;;;;;5115027;28;20148;-78
2023/01/19 06:51:21;;;;;;;20.03;2.77;;;4.00;99.90;;;;;;5114118;28;20121;-76
2023/01/19 06:53:47;;;;;;;12.43;1.90;;;4.00;99.90;;;;;;5115122;28;20039;-76
2023/01/19 06:56:12;;;;;;;16.00;2.23;;;4.00;99.90;;;;;;5114940;28;20050;-76
2023/01/19 06:58:39;;;;;;;15.30;2.60;;;3.90;99.90;;;;;;5115169;28;20048;-76
2023/01/19 07:01:06;;;;;;;17.63;1.77;;;3.90;99.90;;;;;;5114841;28;20051;-76
2023/01/19 07:03:32;;;;;;;12.73;2.45;;;3.90;99.90;;;;;;5115005;28;20040;-76
2023/01/19 07:06:01;;;;;;;14.63;2.08;;;4.00;99.90;;;;;;5114421;28;20123;-76
2023/01/19 07:08:27;;;;;;;19.60;2.67;;;4.00;99.90;;;;;;5113993;28;20059;-76
2023/01/19 07:11:00;;;;;;;20.02;2.35;;;4.00;99.90;;;;;;5114993;28;20136;-76
2023/01/19 07:13:25;;;;;;;18.77;2.63;;;4.00;99.90;;;;;;5115083;28;20047;-76
2023/01/19 07:15:51;;;;;;;18.70;3.13;;;4.00;99.90;;;;;;5114874;28;20399;-76
2023/01/19 07:18:17;;;;;;;18.40;2.50;;;4.00;99.90;;;;;;5114472;28;20103;-76
2023/01/19 07:20:44;;;;;;;16.87;2.17;;;4.00;99.90;;;;;;5114620;28;20105;-76
2023/01/19 07:23:10;;;;;;;14.88;2.70;;;3.90;99.90;;;;;;5114718;28;20051;-76
2023/01/19 07:25:37;;;;;;;17.83;2.40;;;4.00;99.90;;;;;;5114697;28;20043;-76
2023/01/19 07:28:03;;;;;;;22.00;2.35;;;4.00;99.90;;;;;;5114309;28;20108;-76
2023/01/19 07:30:29;;;;;;;23.45;2.95;;;4.00;99.90;;;;;;5113462;28;20391;-76
2023/01/19 07:32:56;;;;;;;20.27;2.50;;;4.00;99.90;;;;;;5113244;28;20047;-76
2023/01/19 07:35:23;;;;;;;15.88;2.78;;;4.00;99.90;;;;;;5113217;28;20044;-76
2023/01/19 07:37:49;;;;;;;18.35;2.72;;;4.00;99.90;;;;;;5114359;28;20044;-76
2023/01/19 07:40:15;;;;;;;18.07;3.00;;;4.10;99.90;;;;;;5114080;28;20074;-76
2023/01/19 07:42:49;;;;;;;19.73;2.47;;;4.00;99.90;;;;;;5114339;28;20330;-76
2023/01/19 07:45:19;;;;;;;20.40;3.63;;;4.00;99.90;;;;;;5114081;27;20048;-76
2023/01/19 07:47:47;;;;;;;27.70;3.53;;;4.10;99.90;;;;;;5114233;28;20142;-76
2023/01/19 07:50:14;;;;;;;18.95;2.60;;;4.00;99.90;;;;;;5113889;28;20117;-76
2023/01/19 07:52:40;;;;;;;23.60;2.95;;;3.90;99.90;;;;;;5114138;27;20044;-76
2023/01/19 07:55:07;;;;;;;22.00;2.58;;;3.90;99.90;;;;;;5112949;28;20043;-76
2023/01/19 07:57:33;;;;;;;21.60;2.33;;;3.90;99.90;;;;;;5114086;28;20101;-76
2023/01/19 07:59:59;;;;;;;16.85;2.25;;;3.90;99.90;;;;;;5114102;28;20055;-76
2023/01/19 08:02:24;;;;;;;18.90;3.00;;;3.80;99.90;;;;;;5113382;28;20044;-76
2023/01/19 08:04:50;;;;;;;19.07;3.47;;;3.80;99.90;;;;;;5113854;28;20054;-76
2023/01/19 08:07:17;;;;;;;20.67;3.13;;;3.80;99.90;;;;;;5113472;28;20497;-76
2023/01/19 08:09:43;;;;;;;20.65;3.50;;;3.80;99.90;;;;;;5114050;28;20036;-76
2023/01/19 08:12:09;;;;;;;21.35;3.60;;;3.90;99.90;;;;;;5113414;28;20126;-76
2023/01/19 08:14:34;;;;;;;19.17;2.93;;;3.80;99.90;;;;;;5112569;28;20143;-76
2023/01/19 08:17:00;;;;;;;25.77;3.20;;;3.80;99.90;;;;;;5113838;28;20280;-76
2023/01/19 08:19:27;;;;;;;24.40;3.10;;;3.80;99.90;;;;;;5113367;28;20052;-75
2023/01/19 08:21:52;;;;;;;24.35;3.20;;;3.80;99.90;;;;;;5112974;28;20043;-77
2023/01/19 08:24:21;;;;;;;19.60;3.57;;;3.80;99.90;;;;;;5112985;28;20043;-77
2023/01/19 08:26:47;;;;;;;27.70;3.28;;;3.80;99.90;;;;;;5113425;28;20058;-77
2023/01/19 08:29:14;;;;;;;27.95;3.25;;;3.80;99.90;;;;;;5112421;28;20047;-78
2023/01/19 08:31:40;;;;;;;19.50;3.38;;;3.80;99.90;;;;;;5113490;28;20126;-73
2023/01/19 08:34:07;;;;;;;19.83;2.70;;;3.80;99.90;;;;;;5113380;28;20145;-74
2023/01/19 08:36:33;;;;;;;22.33;3.70;;;3.70;99.90;;;;;;5112614;28;20108;-73
2023/01/19 08:38:58;;;;;;;21.15;2.65;;;3.70;99.90;;;;;;5113558;28;20456;-73
2023/01/19 08:41:25;;;;;;;19.13;2.93;;;3.70;99.90;;;;;;5113236;28;20052;-74
2023/01/19 08:43:50;;;;;;;23.65;3.63;;;3.70;99.90;;;;;;5116604;28;20074;-74
2023/01/19 08:46:19;;;;;;;18.77;4.63;;;3.70;99.90;;;;;;5116338;28;20047;-74
2023/01/19 08:48:47;;;;;;;20.52;3.50;;;3.70;99.90;;;;;;5117705;28;20059;-74
2023/01/19 08:51:14;;;;;;;23.27;3.60;;;3.80;99.90;;;;;;5117423;28;20048;-74
2023/01/19 08:53:41;;;;;;;23.00;3.83;;;3.70;99.90;;;;;;5116328;28;20046;-74
2023/01/19 08:56:11;;;;;;;22.35;3.22;;;3.70;99.90;;;;;;5116220;28;20055;-74
2023/01/19 08:58:41;;;;;;;24.42;3.40;;;3.60;99.90;;;;;;5117837;28;20043;-73
2023/01/19 09:01:08;;;;;;;25.60;3.50;;;3.70;99.90;;;;;;5117177;28;20066;-77
2023/01/19 09:03:37;;;;;;;21.52;3.75;;;3.60;99.90;;;;;;5099528;28;20475;-74
2023/01/19 09:06:07;;;;;;;20.33;3.90;;;3.70;99.90;;;;;;5116536;28;20365;-74
2023/01/19 09:08:33;;;;;;;22.02;4.10;;;3.60;99.90;;;;;;5117673;28;20051;-74
2023/01/19 09:10:58;;;;;;;24.33;4.00;;;3.60;99.90;;;;;;5117187;28;20487;-73
2023/01/19 09:13:24;;;;;;;18.80;2.93;;;3.70;99.90;;;;;;5116917;28;20044;-73
2023/01/19 09:15:50;;;;;;;23.57;3.77;;;3.60;99.90;;;;;;5117318;28;20555;-73
2023/01/19 09:18:19;;;;;;;31.48;3.10;;;3.70;99.90;;;;;;5116737;28;20058;-74
2023/01/19 09:20:47;;;;;;;26.38;3.78;;;3.70;99.90;;;;;;5117273;28;20048;-73
2023/01/19 09:23:16;;;;;;;23.88;3.05;;;3.70;99.90;;;;;;5116816;28;20044;-74
2023/01/19 09:25:43;;;;;;;25.58;2.67;;;3.70;99.90;;;;;;5116952;28;20044;-73
2023/01/19 09:28:11;;;;;;;19.42;3.05;;;3.70;99.90;;;;;;5116883;28;20039;-81
2023/01/19 09:30:38;;;;;;;17.70;3.35;;;3.70;99.90;;;;;;5117144;28;20103;-74
2023/01/19 09:33:06;;;;;;;20.17;3.50;;;3.70;99.90;;;;;;5116965;28;20181;-73
2023/01/19 09:35:33;;;;;;;19.17;2.90;;;3.70;99.90;;;;;;5116492;28;20048;-78
2023/01/19 09:37:59;;;;;;;20.30;3.65;;;3.70;99.90;;;;;;5098836;28;20052;-74
2023/01/19 09:40:25;;;;;;;13.85;2.28;;;3.80;99.90;;;;;;5114967;28;20039;-77
2023/01/19 09:43:03;;;;;;;17.48;2.63;;;3.90;99.90;;;;;;5116579;27;20039;-75
2023/01/19 09:45:44;;;;;;;21.50;2.55;;;4.00;99.90;;;;;;5115639;28;20062;-75
2023/01/19 09:48:44;;;;;;;12.55;2.05;;;4.20;99.90;;;;;;5116671;28;20047;-75
2023/01/19 09:51:23;;;;;;;17.08;2.63;;;4.30;99.90;;;;;;5116503;28;20040;-75
2023/01/19 09:53:49;;;;;;;15.73;2.08;;;4.30;99.90;;;;;;5115003;28;20040;-75
2023/01/19 09:56:18;;;;;;;16.98;2.45;;;4.30;99.90;;;;;;5115123;28;20392;-76
2023/01/19 09:58:45;;;;;;;17.60;2.45;;;4.30;99.90;;;;;;5116305;28;20119;-75
2023/01/19 10:01:25;;;;;;;16.58;2.25;;;4.30;99.90;;;;;;5116400;28;20043;-75
2023/01/19 10:04:13;;;;;;;14.57;2.10;;;4.20;99.90;;;;;;5116445;28;20046;-75
2023/01/19 10:06:39;;;;;;;14.00;2.28;;;4.20;99.90;;;;;;5116378;28;20043;-76
2023/01/19 10:09:23;;;;;;;12.95;2.35;;;4.20;99.90;;;;;;5116242;28;20039;-74
2023/01/19 10:11:58;;;;;;;18.27;2.72;;;4.20;99.90;;;;;;5116172;28;20158;-73
2023/01/19 10:14:41;;;;;;;18.27;2.10;;;4.20;99.90;;;;;;5115713;28;20048;-75
2023/01/19 10:17:38;;;;;;;20.45;2.63;;;4.20;99.90;;;;;;5115960;28;20614;-76
2023/01/19 10:20:10;;;;;;;;;;;4.20;99.90;;;;;;5116210;28;20051;-73
2023/01/19 10:22:36;;;;;;;13.93;2.08;;;4.20;99.90;;;;;;5113922;28;20400;-75
2023/01/19 10:25:06;;;;;;;14.70;2.33;;;4.20;99.90;;;;;;5112688;28;20526;-75
2023/01/19 10:27:36;;;;;;;22.92;2.30;;;4.20;99.90;;;;;;5115211;28;20075;-76
2023/01/19 10:30:02;;;;;;;20.80;3.08;;;4.20;99.90;;;;;;5115617;27;20088;-78
2023/01/19 10:32:32;;;;;;;18.02;2.40;;;4.30;99.90;;;;;;5114865;28;20479;-80
2023/01/19 10:34:59;;;;;;;18.52;2.40;;;4.30;99.90;;;;;;5115230;28;20505;-77
2023/01/19 10:37:31;;;;;;;17.27;3.13;;;4.30;99.90;;;;;;5115176;28;20051;-79
2023/01/19 10:40:05;;;;;;;11.10;1.70;;;4.30;99.90;;;;;;5115105;28;20495;-79
2023/01/19 10:42:31;;;;;;;12.25;2.20;;;4.30;99.90;;;;;;5113979;28;20136;-78
2023/01/19 10:44:56;;;;;;;13.57;2.47;;;4.40;99.90;;;;;;5114119;28;20074;-84
2023/01/19 10:47:30;;;;;;;16.20;2.17;;;4.40;99.90;;;;;;5114739;28;20524;-79
2023/01/19 10:49:56;;;;;;;15.18;1.92;;;4.40;99.90;;;;;;5115714;28;20051;-78
2023/01/19 10:52:35;;;;;;;16.87;2.70;;;4.40;99.90;;;;;;5114725;28;20365;-78
2023/01/19 10:55:06;;;;;;;13.25;1.83;;;4.40;99.90;;;;;;5114277;28;20072;-78
2023/01/19 10:57:37;;;;;;;13.10;2.08;;;4.30;99.90;;;;;;5096487;28;20054;-77
2023/01/19 11:00:22;;;;;;;14.60;2.70;;;4.40;99.90;;;;;;5112457;28;20112;-75
2023/01/19 11:02:51;;;;;;;11.68;1.88;;;4.30;99.90;;;;;;5114025;28;20436;-76
2023/01/19 11:05:25;;;;;;;12.43;1.73;;;4.30;99.90;;;;;;5114016;28;20131;-75
2023/01/19 11:07:51;;;;;;;12.07;1.70;;;4.30;99.90;;;;;;5114193;28;20135;-76
2023/01/19 11:10:19;;;;;;;9.00;1.73;;;4.40;99.90;;;;;;5114094;28;20542;-78
2023/01/19 11:12:55;;;;;;;15.07;1.73;;;4.40;99.90;;;;;;5106171;28;20043;-73
2023/01/19 11:15:24;;;;;;;13.25;1.88;;;4.40;99.90;;;;;;5114397;28;20396;-85
2023/01/19 11:17:51;;;;;;;12.43;1.70;;;4.40;99.90;;;;;;5114206;27;20118;-76
2023/01/19 11:20:19;;;;;;;14.85;1.98;;;4.50;99.90;;;;;;5114026;28;20083;-76
2023/01/19 11:22:44;;;;;;;10.80;1.50;;;4.50;99.90;;;;;;5113544;28;20506;-74
2023/01/19 11:25:29;;;;;;;10.70;1.67;;;4.50;99.90;;;;;;5114264;28;20048;-74
2023/01/19 11:27:55;;;;;;;17.40;2.42;;;4.50;99.90;;;;;;5108583;28;20054;-76
2023/01/19 11:30:24;;;;;;;16.70;3.17;;;4.50;99.90;;;;;;5114374;28;20476;-77
2023/01/19 11:32:50;;;;;;;14.73;2.17;;;4.60;99.90;;;;;;5112842;28;20144;-75
2023/01/19 11:35:35;;;;;;;10.70;1.80;;;4.50;99.90;;;;;;5114242;28;20050;-75
2023/01/19 11:38:04;;;;;;;16.45;2.08;;;4.60;99.90;;;;;;5113704;28;20047;-74
2023/01/19 11:40:31;;;;;;;11.95;1.83;;;4.60;99.90;;;;;;5114247;28;20102;-74
2023/01/19 11:42:57;;;;;;;12.45;2.25;;;4.60;99.90;;;;;;5113154;28;20127;-74
2023/01/19 11:45:23;;;;;;;17.07;1.83;;;4.60;99.90;;;;;;5114270;28;20043;-74
2023/01/19 11:47:51;;;;;;;12.35;2.00;;;4.60;99.90;;;;;;5114243;28;20116;-75
2023/01/19 11:50:37;;;;;;;13.02;1.50;;;4.70;99.90;;;;;;5114164;28;20434;-75
2023/01/19 11:53:05;;;;;;;13.63;1.80;;;4.80;99.90;;;;;;5114060;28;20039;-75
2023/01/19 11:56:00;;;;;;;10.95;1.50;;;4.90;99.90;;;;;;5112888;28;20051;-78
2023/01/19 11:58:26;;;;;;;12.15;2.03;;;5.00;99.90;;;;;;5113958;28;20460;-76
2023/01/19 12:01:19;;;;;;;10.93;1.95;;;5.10;99.90;;;;;;5114030;28;20079;-75
2023/01/19 12:04:08;;;;;;;13.27;2.05;;;5.10;99.90;;;;;;5113304;28;20816;-76
2023/01/19 12:06:39;;;;;;;8.18;1.98;;;5.10;99.90;;;;;;5111948;28;20157;-73
2023/01/19 12:09:16;;;;;;;8.48;1.30;;;5.10;99.90;;;;;;5108288;28;20039;-75
2023/01/19 12:11:56;;;;;;;12.35;1.70;;;5.10;99.90;;;;;;5112356;28;20040;-74
2023/01/19 12:14:32;;;;;;;9.02;1.38;;;5.10;99.90;;;;;;5113900;28;20373;-73
2023/01/19 12:17:02;;;;;;;11.95;1.52;;;5.10;99.90;;;;;;5113314;28;20122;-78
2023/01/19 12:20:02;;;;;;;10.27;1.58;;;5.10;99.90;;;;;;5113525;28;20060;-81
2023/01/19 12:22:29;;;;;;;7.07;1.27;;;5.10;99.90;;;;;;5110120;28;20051;-85
2023/01/19 12:25:20;;;;;;;6.25;1.35;;;5.10;99.90;;;;;;5113291;28;20514;-76
2023/01/19 12:27:48;;;;;;;9.55;1.75;;;5.20;99.90;;;;;;5113020;28;20087;-76
2023/01/19 12:30:21;;;;;;;9.00;1.50;;;5.20;99.90;;;;;;5112651;28;20388;-75
2023/01/19 12:32:47;;;;;;;5.68;1.23;;;5.20;99.90;;;;;;5113293;28;20044;-76
2023/01/19 12:35:50;;;;;;;4.67;1.13;;;5.20;99.90;;;;;;5113530;28;20052;-76
2023/01/19 12:38:46;;;;;;;6.68;1.38;;;5.20;99.90;;;;;;5113578;28;20050;-76
2023/01/19 12:41:23;;;;;;;7.75;1.70;;;5.20;99.90;;;;;;5113825;28;20051;-76
2023/01/19 12:44:08;;;;;;;11.00;1.95;;;5.20;99.90;;;;;;5113065;28;20044;-76
2023/01/19 12:46:41;;;;;;;10.77;1.95;;;5.20;99.90;;;;;;5113127;28;20052;-76
2023/01/19 12:49:25;;;;;;;10.35;1.55;;;5.20;99.90;;;;;;5114068;28;20065;-76
2023/01/19 12:52:11;;;;;;;11.82;1.80;;;5.20;99.90;;;;;;5113052;28;20108;-76
2023/01/19 12:54:40;;;;;;;7.50;1.55;;;5.30;99.90;;;;;;5113278;28;20054;-77
2023/01/19 12:57:21;;;;;;;7.35;1.33;;;5.30;99.90;;;;;;5113035;28;20043;-76
2023/01/19 12:59:56;;;;;;;7.70;1.52;;;5.30;99.90;;;;;;5111812;28;20127;-75
2023/01/19 13:02:41;;;;;;;11.70;1.90;;;5.30;99.90;;;;;;5107951;28;20062;-84
2023/01/19 13:05:17;;;;;;;8.45;1.60;;;5.20;99.90;;;;;;5106172;28;20071;-79
2023/01/19 13:08:01;;;;;;;10.73;1.88;;;5.20;99.90;;;;;;5109923;28;20043;-79
2023/01/19 13:10:54;;;;;;;12.45;1.52;;;5.00;99.90;;;;;;5106802;28;20131;-76
2023/01/19 13:13:32;;;;;;;7.15;1.40;;;5.00;99.90;;;;;;5109766;28;20688;-79
2023/01/19 13:16:21;;;;;;;7.28;1.50;;;4.90;99.90;;;;;;5105515;28;20115;-80